createdAt,value
2022-11-26T00:02:22.404Z,19.73
2022-11-26T00:04:50.678Z,18.63
2022-11-26T00:07:22.383Z,16.03
2022-11-26T00:09:50.889Z,25.53
2022-11-26T00:12:22.080Z,17.20
2022-11-26T00:14:50.021Z,21.23
2022-11-26T00:17:18.714Z,18.70
2022-11-26T00:19:47.053Z,16.47
2022-11-26T00:22:24.238Z,21.93
2022-11-26T00:24:53.028Z,17.07
2022-11-26T00:27:25.484Z,15.37
2022-11-26T00:29:53.614Z,17.97
2022-11-26T00:32:24.567Z,15.90
2022-11-26T00:34:52.608Z,17.80
2022-11-26T00:37:24.291Z,22.10
2022-11-26T00:39:52.859Z,19.50
2022-11-26T00:42:22.984Z,19.27
2022-11-26T00:44:51.281Z,18.17
2022-11-26T00:47:19.310Z,19.03
2022-11-26T00:49:47.353Z,15.80
2022-11-26T00:52:27.664Z,15.87
2022-11-26T00:54:55.899Z,14.37
2022-11-26T00:57:25.367Z,22.77
2022-11-26T00:59:53.358Z,20.07
2022-11-26T01:02:21.488Z,21.30
2022-11-26T01:04:49.497Z,15.47
2022-11-26T01:07:17.581Z,12.00
2022-11-26T01:09:47.564Z,15.60
2022-11-26T01:12:16.427Z,17.07
2022-11-26T01:14:45.791Z,17.60
2022-11-26T01:17:13.806Z,14.73
2022-11-26T01:19:41.817Z,15.67
2022-11-26T01:22:20.040Z,14.77
2022-11-26T01:24:48.218Z,14.80
2022-11-26T01:27:16.472Z,13.00
2022-11-26T01:29:45.781Z,15.80
2022-11-26T01:32:13.933Z,11.30
2022-11-26T01:34:41.920Z,11.70
2022-11-26T01:37:14.480Z,13.90
2022-11-26T01:39:42.771Z,9.60
2022-11-26T01:42:23.844Z,14.50
2022-11-26T01:44:53.203Z,13.67
2022-11-26T01:47:23.916Z,11.90
2022-11-26T01:50:29.213Z,19.10
2022-11-26T01:53:00.582Z,14.53
2022-11-26T01:55:35.817Z,12.10
2022-11-26T01:58:06.417Z,14.70
2022-11-26T02:00:35.889Z,17.70
2022-11-26T02:03:05.860Z,16.33
2022-11-26T02:05:40.483Z,13.57
2022-11-26T02:08:09.325Z,16.33
2022-11-26T02:10:37.397Z,9.80
2022-11-26T02:13:06.190Z,10.33
2022-11-26T02:15:45.296Z,12.80
2022-11-26T02:18:13.948Z,15.10
2022-11-26T02:20:52.246Z,15.13
2022-11-26T02:23:53.773Z,13.03
2022-11-26T02:26:45.758Z,11.23
2022-11-26T02:29:21.191Z,9.60
2022-11-26T02:31:54.439Z,11.20
2022-11-26T02:34:34.267Z,15.30
2022-11-26T02:37:08.780Z,11.47
2022-11-26T02:39:36.854Z,8.87
2022-11-26T02:42:22.226Z,13.37
2022-11-26T02:44:50.563Z,8.23
2022-11-26T02:47:21.696Z,12.90
2022-11-26T02:49:52.600Z,10.90
2022-11-26T02:52:22.337Z,17.30
2022-11-26T02:54:52.386Z,15.03
2022-11-26T02:57:25.308Z,13.90
2022-11-26T02:59:53.648Z,12.43
2022-11-26T03:02:27.341Z,17.27
2022-11-26T03:04:59.110Z,11.87
2022-11-26T03:07:29.316Z,17.07
2022-11-26T03:09:59.822Z,14.47
2022-11-26T03:12:28.789Z,11.53
2022-11-26T03:14:56.883Z,15.17
2022-11-26T03:17:26.274Z,9.07
2022-11-26T03:19:55.095Z,9.37
2022-11-26T03:22:23.017Z,13.97
2022-11-26T03:24:51.188Z,17.53
2022-11-26T03:27:19.183Z,17.60
2022-11-26T03:29:47.109Z,11.27
2022-11-26T03:32:15.372Z,19.33
2022-11-26T03:34:44.747Z,14.10
2022-11-26T03:37:12.816Z,13.53
2022-11-26T03:39:40.828Z,16.00
2022-11-26T03:42:08.785Z,16.87
2022-11-26T03:44:37.220Z,12.70
2022-11-26T03:47:05.429Z,16.90
2022-11-26T03:49:33.383Z,11.83
2022-11-26T03:52:02.864Z,13.87
2022-11-26T03:54:31.226Z,15.00
2022-11-26T03:56:59.293Z,13.43
2022-11-26T03:59:27.297Z,13.37
2022-11-26T04:01:55.446Z,18.10
2022-11-26T04:04:23.578Z,16.10
2022-11-26T04:06:51.549Z,17.80
2022-11-26T04:09:20.860Z,21.00
2022-11-26T04:11:51.972Z,13.43
2022-11-26T04:14:20.015Z,12.80
2022-11-26T04:16:48.517Z,15.77
2022-11-26T04:19:16.544Z,15.37
2022-11-26T04:21:44.628Z,14.93
2022-11-26T04:24:12.625Z,20.70
2022-11-26T04:26:41.969Z,13.80
2022-11-26T04:29:09.933Z,16.03
2022-11-26T04:31:37.994Z,14.20
2022-11-26T04:34:05.884Z,12.37
2022-11-26T04:36:33.870Z,13.20
2022-11-26T04:39:02.162Z,19.00
2022-11-26T04:41:30.083Z,15.77
2022-11-26T04:43:59.409Z,12.27
2022-11-26T04:46:27.381Z,17.70
2022-11-26T04:48:55.363Z,21.07
2022-11-26T04:51:23.351Z,13.40
2022-11-26T04:53:55.473Z,11.33
2022-11-26T04:56:24.252Z,14.03
2022-11-26T04:58:52.426Z,13.50
2022-11-26T05:01:21.832Z,12.70
2022-11-26T05:03:49.892Z,10.53
2022-11-26T05:06:18.160Z,13.60
2022-11-26T05:08:46.091Z,12.30
2022-11-26T05:11:13.990Z,18.33
2022-11-26T05:13:41.891Z,13.33
2022-11-26T05:16:09.932Z,17.27
2022-11-26T05:18:39.582Z,15.30
2022-11-26T05:21:08.026Z,19.40
2022-11-26T05:23:35.928Z,16.40
2022-11-26T05:26:03.899Z,16.63
2022-11-26T05:28:31.792Z,12.87
2022-11-26T05:31:00.797Z,16.60
2022-11-26T05:33:29.172Z,17.90
2022-11-26T05:35:58.481Z,13.13
2022-11-26T05:38:26.513Z,9.83
2022-11-26T05:40:54.501Z,19.50
2022-11-26T05:43:22.569Z,16.87
2022-11-26T05:45:50.640Z,12.40
2022-11-26T05:48:18.746Z,18.77
2022-11-26T05:50:50.277Z,16.17
2022-11-26T05:53:23.581Z,19.80
2022-11-26T05:55:51.720Z,9.50
2022-11-26T05:58:19.683Z,12.53
2022-11-26T06:00:47.681Z,15.10
2022-11-26T06:03:20.034Z,12.40
2022-11-26T06:05:48.414Z,13.30
2022-11-26T06:08:16.373Z,19.27
2022-11-26T06:10:46.121Z,17.00
2022-11-26T06:13:14.132Z,19.57
2022-11-26T06:15:42.027Z,17.97
2022-11-26T06:18:10.284Z,11.00
2022-11-26T06:20:38.554Z,15.07
2022-11-26T06:23:06.564Z,15.87
2022-11-26T06:25:34.653Z,14.37
2022-11-26T06:28:03.967Z,14.67
2022-11-26T06:30:31.925Z,8.03
2022-11-26T06:32:59.897Z,14.50
2022-11-26T06:35:28.159Z,14.70
2022-11-26T06:37:56.084Z,11.80
2022-11-26T06:40:24.383Z,15.07
2022-11-26T06:42:53.796Z,7.80
2022-11-26T06:45:24.486Z,13.37
2022-11-26T06:47:53.283Z,11.90
2022-11-26T06:50:24.018Z,12.03
2022-11-26T06:52:52.880Z,14.47
2022-11-26T06:55:20.972Z,9.83
2022-11-26T06:57:51.393Z,11.40
2022-11-26T07:00:19.874Z,12.40
2022-11-26T07:02:49.226Z,14.60
2022-11-26T07:05:17.174Z,16.23
2022-11-26T07:07:45.263Z,15.63
2022-11-26T07:10:13.773Z,12.10
2022-11-26T07:12:41.949Z,15.33
2022-11-26T07:15:11.102Z,16.20
2022-11-26T07:17:39.516Z,14.10
2022-11-26T07:20:11.019Z,16.90
2022-11-26T07:22:41.930Z,13.50
2022-11-26T07:25:12.748Z,11.60
2022-11-26T07:27:41.616Z,12.23
2022-11-26T07:30:14.088Z,13.27
2022-11-26T07:32:42.091Z,10.63
2022-11-26T07:35:11.444Z,13.00
2022-11-26T07:37:40.042Z,14.33
2022-11-26T07:40:09.167Z,15.50
2022-11-26T07:42:37.151Z,20.20
2022-11-26T07:45:05.680Z,12.07
2022-11-26T07:47:33.647Z,16.10
2022-11-26T07:50:01.877Z,17.80
2022-11-26T07:52:31.241Z,17.13
2022-11-26T07:54:59.252Z,14.60
2022-11-26T07:57:27.188Z,12.67
2022-11-26T07:59:55.474Z,14.57
2022-11-26T08:02:23.551Z,17.73
2022-11-26T08:04:51.565Z,17.60
2022-11-26T08:07:25.827Z,12.53
2022-11-26T08:09:58.424Z,20.70
2022-11-26T08:12:26.944Z,16.80
2022-11-26T08:14:54.908Z,11.00
2022-11-26T08:17:22.873Z,17.03
2022-11-26T08:19:50.824Z,11.20
2022-11-26T08:22:18.780Z,15.97
2022-11-26T08:24:46.742Z,12.40
2022-11-26T08:27:16.050Z,14.10
2022-11-26T08:29:43.979Z,9.90
2022-11-26T08:32:12.349Z,10.20
2022-11-26T08:34:40.728Z,20.90
2022-11-26T08:37:08.946Z,11.23
2022-11-26T08:39:37.013Z,10.20
2022-11-26T08:42:05.256Z,11.87
2022-11-26T08:44:34.548Z,17.03
2022-11-26T08:47:02.773Z,23.27
2022-11-26T08:49:31.092Z,13.90
2022-11-26T08:51:59.072Z,16.50
2022-11-26T08:54:27.142Z,12.20
2022-11-26T08:56:55.927Z,19.23
2022-11-26T08:59:24.319Z,11.77
2022-11-26T09:01:54.008Z,17.13
2022-11-26T09:04:22.132Z,17.37
2022-11-26T09:06:50.464Z,14.63
2022-11-26T09:09:18.555Z,10.50
2022-11-26T09:11:49.194Z,13.60
2022-11-26T09:14:19.394Z,14.90
2022-11-26T09:16:55.839Z,9.17
2022-11-26T09:19:48.035Z,16.20
2022-11-26T09:22:31.304Z,14.67
2022-11-26T09:25:08.375Z,18.43
2022-11-26T09:28:01.152Z,13.27
2022-11-26T09:30:35.832Z,14.23
2022-11-26T09:33:07.162Z,11.73
2022-11-26T09:35:40.989Z,13.03
2022-11-26T09:38:09.240Z,12.40
2022-11-26T09:40:46.401Z,13.57
2022-11-26T09:43:39.986Z,11.70
2022-11-26T09:46:13.451Z,18.63
2022-11-26T09:48:46.320Z,15.90
2022-11-26T09:51:20.429Z,11.27
2022-11-26T09:53:51.063Z,12.50
2022-11-26T09:56:24.686Z,18.00
2022-11-26T09:58:57.658Z,17.30
2022-11-26T10:01:26.644Z,17.43
2022-11-26T10:03:54.855Z,17.93
2022-11-26T10:06:34.244Z,19.93
2022-11-26T10:09:18.885Z,19.93
2022-11-26T10:11:54.767Z,15.90
2022-11-26T10:14:37.439Z,21.37
2022-11-26T10:17:24.184Z,11.90
2022-11-26T10:20:07.753Z,15.87
2022-11-26T10:22:45.321Z,17.50
2022-11-26T10:25:18.377Z,11.73
2022-11-26T10:27:48.192Z,12.70
2022-11-26T10:30:21.367Z,13.87
2022-11-26T10:32:51.383Z,14.43
2022-11-26T10:35:21.769Z,22.13
2022-11-26T10:37:52.385Z,23.27
2022-11-26T10:40:24.270Z,18.40
2022-11-26T10:43:01.221Z,21.60
2022-11-26T10:45:38.728Z,17.03
2022-11-26T10:48:22.750Z,17.83
2022-11-26T10:51:04.287Z,15.50
2022-11-26T10:53:49.583Z,12.77
2022-11-26T10:56:20.629Z,18.20
2022-11-26T10:58:51.169Z,19.27
2022-11-26T11:01:19.735Z,17.93
2022-11-26T11:04:08.196Z,18.67
2022-11-26T11:06:42.029Z,18.50
2022-11-26T11:09:41.781Z,20.03
2022-11-26T11:12:19.613Z,21.87
2022-11-26T11:14:48.734Z,20.23
2022-11-26T11:17:36.425Z,23.93
2022-11-26T11:20:27.439Z,18.53
2022-11-26T11:23:01.350Z,13.77
2022-11-26T11:25:33.382Z,16.63
2022-11-26T11:28:15.350Z,12.33
2022-11-26T11:30:46.100Z,14.67
2022-11-26T11:33:21.266Z,17.57
2022-11-26T11:36:00.540Z,15.47
2022-11-26T11:38:30.798Z,15.40
2022-11-26T11:41:04.849Z,17.30
2022-11-26T11:43:37.397Z,12.37
2022-11-26T11:46:24.982Z,14.70
2022-11-26T11:49:01.217Z,12.97
2022-11-26T11:51:39.631Z,15.70
2022-11-26T11:54:21.443Z,15.27
2022-11-26T11:56:56.421Z,13.10
2022-11-26T12:00:09.174Z,19.93
2022-11-26T12:03:10.330Z,22.90
2022-11-26T12:06:00.451Z,14.93
2022-11-26T12:08:44.391Z,13.33
2022-11-26T12:11:31.490Z,12.77
2022-11-26T12:14:05.549Z,13.93
2022-11-26T12:16:39.088Z,13.30
2022-11-26T12:19:13.855Z,23.43
2022-11-26T12:21:47.843Z,19.47
2022-11-26T12:24:25.932Z,15.47
2022-11-26T12:26:58.190Z,13.10
2022-11-26T12:29:36.724Z,14.67
2022-11-26T12:32:11.768Z,13.90
2022-11-26T12:34:45.910Z,23.77
2022-11-26T12:37:20.475Z,17.07
2022-11-26T12:39:56.796Z,20.90
2022-11-26T12:42:29.654Z,14.30
2022-11-26T12:45:07.433Z,12.53
2022-11-26T12:47:40.129Z,18.83
2022-11-26T12:50:16.504Z,20.00
2022-11-26T12:52:58.759Z,19.97
2022-11-26T12:55:32.770Z,25.37
2022-11-26T12:58:09.182Z,18.23
2022-11-26T13:00:39.022Z,17.37
2022-11-26T13:03:08.590Z,19.67
2022-11-26T13:05:51.486Z,18.67
2022-11-26T13:08:32.584Z,21.00
2022-11-26T13:11:14.485Z,17.67
2022-11-26T13:13:49.744Z,13.90
2022-11-26T13:16:27.232Z,16.37
2022-11-26T13:19:05.320Z,21.40
2022-11-26T13:21:52.829Z,16.93
2022-11-26T13:24:52.038Z,16.50
2022-11-26T13:27:36.223Z,13.50
2022-11-26T13:30:22.267Z,16.70
2022-11-26T13:33:28.285Z,18.07
2022-11-26T13:36:30.701Z,19.57
2022-11-26T13:39:13.961Z,22.30
2022-11-26T13:41:59.983Z,30.13
2022-11-26T13:44:56.819Z,21.07
2022-11-26T13:47:29.870Z,19.60
2022-11-26T13:50:02.906Z,19.10
2022-11-26T13:52:36.907Z,21.00
2022-11-26T13:55:11.548Z,17.67
2022-11-26T13:57:44.303Z,18.50
2022-11-26T14:00:24.426Z,12.50
2022-11-26T14:02:52.752Z,15.60
2022-11-26T14:05:23.249Z,17.80
2022-11-26T14:07:51.462Z,14.83
2022-11-26T14:10:44.449Z,22.23
2022-11-26T14:13:16.146Z,12.70
2022-11-26T14:15:59.363Z,24.37
2022-11-26T14:18:56.669Z,15.93
2022-11-26T14:21:26.088Z,20.03
2022-11-26T14:23:55.887Z,17.20
2022-11-26T14:26:30.124Z,24.33
2022-11-26T14:29:10.758Z,24.90
2022-11-26T14:31:41.902Z,20.83
2022-11-26T14:34:15.631Z,22.33
2022-11-26T14:36:56.544Z,20.87
2022-11-26T14:39:25.242Z,19.27
2022-11-26T14:41:58.939Z,19.97
2022-11-26T14:44:30.173Z,17.87
2022-11-26T14:47:00.485Z,32.57
2022-11-26T14:49:38.930Z,24.70
2022-11-26T14:52:17.839Z,21.97
2022-11-26T14:54:49.544Z,19.70
2022-11-26T14:57:25.638Z,19.30
2022-11-26T14:59:58.634Z,19.70
2022-11-26T15:02:28.442Z,19.50
2022-11-26T15:05:02.500Z,22.87
2022-11-26T15:07:33.009Z,20.80
2022-11-26T15:10:02.710Z,24.77
2022-11-26T15:12:31.535Z,24.57
2022-11-26T15:15:01.639Z,17.50
2022-11-26T15:17:33.967Z,17.77
2022-11-26T15:20:05.449Z,16.90
2022-11-26T15:22:39.125Z,24.80
2022-11-26T15:25:17.538Z,31.10
2022-11-26T15:27:54.589Z,21.83
2022-11-26T15:30:25.738Z,19.77
2022-11-26T15:33:03.606Z,19.57
2022-11-26T15:35:50.517Z,21.23
2022-11-26T15:38:21.474Z,19.03
2022-11-26T15:40:53.400Z,27.90
2022-11-26T15:43:26.421Z,22.63
2022-11-26T15:45:56.067Z,22.93
2022-11-26T15:48:36.431Z,18.37
2022-11-26T15:51:23.104Z,27.00
2022-11-26T15:53:52.936Z,19.07
2022-11-26T15:56:23.916Z,21.17
2022-11-26T15:58:55.237Z,21.47
2022-11-26T16:01:26.161Z,17.87
2022-11-26T16:03:55.494Z,21.33
2022-11-26T16:06:29.897Z,24.83
2022-11-26T16:09:06.240Z,28.13
2022-11-26T16:11:36.970Z,23.83
2022-11-26T16:14:34.252Z,29.90
2022-11-26T16:17:08.569Z,22.77
2022-11-26T16:19:38.261Z,18.67
2022-11-26T16:22:07.717Z,26.90
2022-11-26T16:24:40.838Z,28.97
2022-11-26T16:27:26.260Z,21.20
2022-11-26T16:29:54.556Z,29.77
2022-11-26T16:32:22.652Z,29.63
2022-11-26T16:34:51.067Z,27.97
2022-11-26T16:37:22.295Z,24.33
2022-11-26T16:40:02.341Z,22.10
2022-11-26T16:42:34.073Z,24.10
2022-11-26T16:45:04.393Z,15.77
2022-11-26T16:47:36.983Z,26.80
2022-11-26T16:50:08.361Z,32.30
2022-11-26T16:52:40.730Z,17.63
2022-11-26T16:55:13.208Z,21.40
2022-11-26T16:57:42.009Z,21.37
2022-11-26T17:00:18.024Z,19.03
2022-11-26T17:02:46.542Z,14.37
2022-11-26T17:05:15.360Z,21.70
2022-11-26T17:07:46.730Z,19.80
2022-11-26T17:10:18.891Z,17.60
2022-11-26T17:12:47.120Z,16.37
2022-11-26T17:15:15.265Z,16.43
2022-11-26T17:17:43.601Z,20.03
2022-11-26T17:20:17.288Z,14.20
2022-11-26T17:22:45.518Z,21.00
2022-11-26T17:25:14.062Z,18.10
2022-11-26T17:27:44.143Z,20.50
2022-11-26T17:30:17.250Z,16.57
2022-11-26T17:32:45.465Z,22.83
2022-11-26T17:35:13.769Z,19.27
2022-11-26T17:37:42.347Z,17.70
2022-11-26T17:40:17.569Z,17.90
2022-11-26T17:42:47.584Z,22.30
2022-11-26T17:45:16.299Z,16.73
2022-11-26T17:47:45.075Z,22.67
2022-11-26T17:50:18.793Z,16.50
2022-11-26T17:52:46.956Z,18.67
2022-11-26T17:55:15.232Z,22.90
2022-11-26T17:57:43.522Z,25.33
2022-11-26T18:00:17.324Z,26.37
2022-11-26T18:02:46.324Z,23.90
2022-11-26T18:05:15.195Z,19.20
2022-11-26T18:07:43.953Z,33.20
2022-11-26T18:10:15.337Z,22.57
2022-11-26T18:12:44.018Z,27.17
2022-11-26T18:15:19.533Z,19.20
2022-11-26T18:17:50.965Z,28.23
2022-11-26T18:20:20.301Z,18.80
2022-11-26T18:22:51.774Z,18.20
2022-11-26T18:25:20.192Z,22.37
2022-11-26T18:27:48.626Z,17.73
2022-11-26T18:30:19.142Z,16.87
2022-11-26T18:32:47.253Z,19.03
2022-11-26T18:35:15.503Z,18.67
2022-11-26T18:37:44.316Z,20.90
2022-11-26T18:40:17.156Z,18.43
2022-11-26T18:42:45.438Z,26.57
2022-11-26T18:45:21.288Z,21.20
2022-11-26T18:47:51.531Z,25.93
2022-11-26T18:50:20.218Z,18.17
2022-11-26T18:52:48.396Z,25.03
2022-11-26T18:55:16.778Z,27.03
2022-11-26T18:57:45.547Z,21.23
2022-11-26T19:00:16.290Z,27.40
2022-11-26T19:02:44.622Z,20.17
2022-11-26T19:05:15.206Z,19.33
2022-11-26T19:07:43.764Z,25.40
2022-11-26T19:10:16.249Z,29.20
2022-11-26T19:12:44.746Z,25.30
2022-11-26T19:15:13.004Z,21.70
2022-11-26T19:17:41.985Z,17.50
2022-11-26T19:20:14.981Z,27.57
2022-11-26T19:22:44.704Z,30.97
2022-11-26T19:25:13.540Z,27.30
2022-11-26T19:27:41.960Z,30.47
2022-11-26T19:30:11.296Z,24.90
2022-11-26T19:32:39.530Z,28.37
2022-11-26T19:35:08.703Z,32.27
2022-11-26T19:37:38.355Z,32.37
2022-11-26T19:40:09.232Z,22.60
2022-11-26T19:42:37.653Z,22.50
2022-11-26T19:45:06.604Z,24.90
2022-11-26T19:47:35.056Z,23.17
2022-11-26T19:50:03.491Z,24.57
2022-11-26T19:52:32.111Z,31.57
2022-11-26T19:55:01.651Z,24.10
2022-11-26T19:57:29.968Z,29.53
2022-11-26T19:59:58.377Z,31.63
2022-11-26T20:02:26.886Z,25.57
2022-11-26T20:04:56.850Z,27.50
2022-11-26T20:07:25.256Z,30.17
2022-11-26T20:09:54.668Z,27.10
2022-11-26T20:12:24.439Z,31.40
2022-11-26T20:14:52.723Z,21.60
2022-11-26T20:17:20.946Z,29.60
2022-11-26T20:19:49.214Z,25.67
2022-11-26T20:22:18.222Z,30.30
2022-11-26T20:24:46.379Z,28.57
2022-11-26T20:27:15.602Z,28.20
2022-11-26T20:29:45.080Z,30.47
2022-11-26T20:32:13.876Z,29.50
2022-11-26T20:34:41.899Z,19.97
2022-11-26T20:37:10.210Z,28.77
2022-11-26T20:39:38.636Z,30.47
2022-11-26T20:42:06.897Z,30.17
2022-11-26T20:44:35.688Z,26.97
2022-11-26T20:47:05.686Z,24.67
2022-11-26T20:49:37.775Z,33.03
2022-11-26T20:52:08.583Z,35.60
2022-11-26T20:54:37.039Z,28.57
2022-11-26T20:57:07.102Z,24.70
2022-11-26T20:59:35.323Z,25.90
2022-11-26T21:02:05.334Z,31.07
2022-11-26T21:04:33.572Z,31.63
2022-11-26T21:07:01.800Z,32.80
2022-11-26T21:09:30.073Z,27.87
2022-11-26T21:11:58.549Z,33.23
2022-11-26T21:14:26.539Z,26.70
2022-11-26T21:16:54.699Z,29.33
2022-11-26T21:19:24.747Z,31.40
2022-11-26T21:21:52.772Z,25.70
2022-11-26T21:24:21.010Z,24.87
2022-11-26T21:26:49.100Z,32.80
2022-11-26T21:29:17.197Z,32.93
2022-11-26T21:31:45.217Z,29.20
2022-11-26T21:34:14.569Z,33.10
2022-11-26T21:36:44.062Z,32.33
2022-11-26T21:39:14.902Z,36.47
2022-11-26T21:41:42.956Z,36.67
2022-11-26T21:44:11.877Z,36.70
2022-11-26T21:46:40.233Z,34.90
2022-11-26T21:49:08.951Z,26.90
2022-11-26T21:51:37.120Z,35.70
2022-11-26T21:54:06.761Z,32.13
2022-11-26T21:56:35.078Z,27.70
2022-11-26T21:59:03.179Z,32.23
2022-11-26T22:01:32.856Z,31.47
2022-11-26T22:04:02.728Z,27.80
2022-11-26T22:06:31.471Z,26.63
2022-11-26T22:08:59.836Z,31.47
2022-11-26T22:11:31.122Z,31.57
2022-11-26T22:13:59.677Z,28.53
2022-11-26T22:16:29.280Z,27.30
2022-11-26T22:18:58.634Z,31.33
2022-11-26T22:21:29.335Z,32.77
2022-11-26T22:23:58.020Z,29.73
2022-11-26T22:26:26.916Z,26.47
2022-11-26T22:28:56.632Z,31.03
2022-11-26T22:31:26.859Z,30.87
2022-11-26T22:33:56.535Z,30.77
2022-11-26T22:36:25.083Z,25.80
2022-11-26T22:38:53.462Z,28.50
2022-11-26T22:41:24.647Z,32.17
2022-11-26T22:43:53.028Z,30.60
2022-11-26T22:46:24.202Z,25.23
2022-11-26T22:48:54.059Z,26.37
2022-11-26T22:51:22.831Z,31.00
2022-11-26T22:53:51.664Z,25.57
2022-11-26T22:56:20.534Z,27.23
2022-11-26T22:58:49.006Z,29.13
2022-11-26T23:01:20.569Z,29.43
2022-11-26T23:03:50.778Z,23.67
2022-11-26T23:06:20.471Z,26.27
2022-11-26T23:08:49.556Z,24.83
2022-11-26T23:11:22.788Z,28.77
2022-11-26T23:13:52.540Z,26.63
2022-11-26T23:16:24.106Z,28.03
2022-11-26T23:18:55.577Z,29.20
2022-11-26T23:21:25.340Z,28.13
2022-11-26T23:23:53.840Z,26.90
2022-11-26T23:26:27.279Z,34.20
2022-11-26T23:28:56.899Z,26.70
2022-11-26T23:31:26.475Z,28.40
2022-11-26T23:33:56.967Z,30.40
2022-11-26T23:36:26.367Z,28.67
2022-11-26T23:38:54.893Z,33.93
2022-11-26T23:41:23.570Z,28.07
2022-11-26T23:43:51.929Z,33.87
2022-11-26T23:46:22.709Z,34.33
2022-11-26T23:48:51.953Z,29.33
2022-11-26T23:51:23.882Z,33.83
2022-11-26T23:53:53.158Z,24.17
2022-11-26T23:56:23.763Z,34.43
2022-11-26T23:58:53.712Z,33.33
